Terminal Aerodrome Forecast
Issued by NWS

Home | Current Version | Previous Version | Text Only | Print | Product List | Glossary Off
Versions: 1 2 3 4 5 6 7 8 9 10 11 12 13 14 15 16 17 18 19 20 21 22 23 24 25 26 27 28

106
FTUS43 KGRB 180529
TAFRHI
TAF
KRHI 180529Z 1806/1906 23007KT P6SM FEW200 WS020/28035KT
     FM180800 27009KT P6SM SCT150 WS020/29040KT
     FM181100 28007KT P6SM SCT150
     FM181600 27007KT P6SM SCT250
     FM182300 27005KT P6SM SCT150
     FM190300 28004KT 5SM BR SCT060=

USA.gov is the U.S. government's official web portal to all federal, state and local government web resources and services.